sensor_id;sensor_type;location;lat;lon;timestamp;temperature;humidity
12089;DHT22;6107;49.078;8.578;2023-06-04T00:02:05;16.60;99.90
12089;DHT22;6107;49.078;8.578;2023-06-04T00:04:30;16.60;99.90
12089;DHT22;6107;49.078;8.578;2023-06-04T00:06:56;16.60;99.90
12089;DHT22;6107;49.078;8.578;2023-06-04T00:09:21;16.60;99.90
12089;DHT22;6107;49.078;8.578;2023-06-04T00:11:47;16.70;99.90
12089;DHT22;6107;49.078;8.578;2023-06-04T00:14:13;16.70;99.90
12089;DHT22;6107;49.078;8.578;2023-06-04T00:16:40;16.70;99.90
12089;DHT22;6107;49.078;8.578;2023-06-04T00:19:06;16.70;99.90
12089;DHT22;6107;49.078;8.578;2023-06-04T00:21:32;16.70;99.90
12089;DHT22;6107;49.078;8.578;2023-06-04T00:23:59;16.80;99.90
12089;DHT22;6107;49.078;8.578;2023-06-04T00:26:24;16.70;99.90
12089;DHT22;6107;49.078;8.578;2023-06-04T00:28:50;16.60;99.90
12089;DHT22;6107;49.078;8.578;2023-06-04T00:31:15;16.70;99.90
12089;DHT22;6107;49.078;8.578;2023-06-04T00:33:41;16.70;99.90
12089;DHT22;6107;49.078;8.578;2023-06-04T00:36:07;16.60;99.90
12089;DHT22;6107;49.078;8.578;2023-06-04T00:38:33;16.60;99.90
12089;DHT22;6107;49.078;8.578;2023-06-04T00:40:58;16.50;99.90
12089;DHT22;6107;49.078;8.578;2023-06-04T00:43:24;16.60;99.90
12089;DHT22;6107;49.078;8.578;2023-06-04T00:45:53;16.50;99.90
12089;DHT22;6107;49.078;8.578;2023-06-04T00:48:19;16.50;99.90
12089;DHT22;6107;49.078;8.578;2023-06-04T00:50:46;16.50;99.90
12089;DHT22;6107;49.078;8.578;2023-06-04T00:53:12;16.40;99.90
12089;DHT22;6107;49.078;8.578;2023-06-04T00:55:38;16.50;99.90
12089;DHT22;6107;49.078;8.578;2023-06-04T00:58:03;16.40;99.90
12089;DHT22;6107;49.078;8.578;2023-06-04T01:00:30;16.40;99.90
12089;DHT22;6107;49.078;8.578;2023-06-04T01:02:57;16.40;99.90
12089;DHT22;6107;49.078;8.578;2023-06-04T01:05:55;16.40;99.90
12089;DHT22;6107;49.078;8.578;2023-06-04T01:08:23;16.40;99.90
12089;DHT22;6107;49.078;8.578;2023-06-04T01:10:53;16.40;99.90
12089;DHT22;6107;49.078;8.578;2023-06-04T01:13:19;16.30;99.90
12089;DHT22;6107;49.078;8.578;2023-06-04T01:15:45;16.30;99.90
12089;DHT22;6107;49.078;8.578;2023-06-04T01:18:19;16.30;99.90
12089;DHT22;6107;49.078;8.578;2023-06-04T01:20:57;16.30;99.90
12089;DHT22;6107;49.078;8.578;2023-06-04T01:26:09;16.20;99.90
12089;DHT22;6107;49.078;8.578;2023-06-04T01:28:36;16.20;99.90
12089;DHT22;6107;49.078;8.578;2023-06-04T01:31:03;16.10;99.90
12089;DHT22;6107;49.078;8.578;2023-06-04T01:33:28;16.10;99.90
12089;DHT22;6107;49.078;8.578;2023-06-04T01:35:54;16.10;99.90
12089;DHT22;6107;49.078;8.578;2023-06-04T01:38:20;16.20;99.90
12089;DHT22;6107;49.078;8.578;2023-06-04T01:40:46;16.10;99.90
12089;DHT22;6107;49.078;8.578;2023-06-04T01:43:12;16.10;99.90
12089;DHT22;6107;49.078;8.578;2023-06-04T01:45:37;16.10;99.90
12089;DHT22;6107;49.078;8.578;2023-06-04T01:48:04;16.10;99.90
12089;DHT22;6107;49.078;8.578;2023-06-04T01:50:30;16.20;99.90
12089;DHT22;6107;49.078;8.578;2023-06-04T01:52:56;16.10;99.90
12089;DHT22;6107;49.078;8.578;2023-06-04T01:55:21;16.10;99.90
12089;DHT22;6107;49.078;8.578;2023-06-04T01:57:48;16.00;99.90
12089;DHT22;6107;49.078;8.578;2023-06-04T02:00:15;15.50;99.90
12089;DHT22;6107;49.078;8.578;2023-06-04T02:02:42;15.20;99.90
12089;DHT22;6107;49.078;8.578;2023-06-04T02:05:08;15.00;99.90
12089;DHT22;6107;49.078;8.578;2023-06-04T02:07:39;15.10;99.90
12089;DHT22;6107;49.078;8.578;2023-06-04T02:10:11;15.20;99.90
12089;DHT22;6107;49.078;8.578;2023-06-04T02:12:38;15.30;99.90
12089;DHT22;6107;49.078;8.578;2023-06-04T02:15:05;15.30;99.90
12089;DHT22;6107;49.078;8.578;2023-06-04T02:17:31;15.40;99.90
12089;DHT22;6107;49.078;8.578;2023-06-04T02:20:04;15.40;99.90
12089;DHT22;6107;49.078;8.578;2023-06-04T02:22:35;15.40;99.90
12089;DHT22;6107;49.078;8.578;2023-06-04T02:25:00;15.40;99.90
12089;DHT22;6107;49.078;8.578;2023-06-04T02:27:26;15.20;99.90
12089;DHT22;6107;49.078;8.578;2023-06-04T02:29:51;14.90;99.90
12089;DHT22;6107;49.078;8.578;2023-06-04T02:32:17;14.80;99.90
12089;DHT22;6107;49.078;8.578;2023-06-04T02:34:43;14.80;99.90
12089;DHT22;6107;49.078;8.578;2023-06-04T02:37:09;14.40;99.90
12089;DHT22;6107;49.078;8.578;2023-06-04T02:39:35;13.90;99.90
12089;DHT22;6107;49.078;8.578;2023-06-04T02:42:00;14.00;99.90
12089;DHT22;6107;49.078;8.578;2023-06-04T02:44:26;14.00;99.90
12089;DHT22;6107;49.078;8.578;2023-06-04T02:46:52;14.00;99.90
12089;DHT22;6107;49.078;8.578;2023-06-04T02:49:17;14.10;99.90
12089;DHT22;6107;49.078;8.578;2023-06-04T02:51:43;14.10;99.90
12089;DHT22;6107;49.078;8.578;2023-06-04T02:54:10;14.10;99.90
12089;DHT22;6107;49.078;8.578;2023-06-04T02:56:36;14.30;99.90
12089;DHT22;6107;49.078;8.578;2023-06-04T02:59:03;14.30;99.90
12089;DHT22;6107;49.078;8.578;2023-06-04T03:01:29;14.30;99.90
12089;DHT22;6107;49.078;8.578;2023-06-04T03:03:55;14.20;99.90
12089;DHT22;6107;49.078;8.578;2023-06-04T03:06:21;14.00;99.90
12089;DHT22;6107;49.078;8.578;2023-06-04T03:08:48;13.90;99.90
12089;DHT22;6107;49.078;8.578;2023-06-04T03:11:15;13.80;99.90
12089;DHT22;6107;49.078;8.578;2023-06-04T03:13:40;13.50;99.90
12089;DHT22;6107;49.078;8.578;2023-06-04T03:16:06;13.40;99.90
12089;DHT22;6107;49.078;8.578;2023-06-04T03:18:41;13.40;99.90
12089;DHT22;6107;49.078;8.578;2023-06-04T03:21:08;13.10;99.90
12089;DHT22;6107;49.078;8.578;2023-06-04T03:23:35;13.20;99.90
12089;DHT22;6107;49.078;8.578;2023-06-04T03:26:02;12.90;99.90
12089;DHT22;6107;49.078;8.578;2023-06-04T03:28:27;12.90;99.90
12089;DHT22;6107;49.078;8.578;2023-06-04T03:30:53;13.10;99.90
12089;DHT22;6107;49.078;8.578;2023-06-04T03:33:19;13.20;99.90
12089;DHT22;6107;49.078;8.578;2023-06-04T03:35:44;13.40;99.90
12089;DHT22;6107;49.078;8.578;2023-06-04T03:38:11;13.50;99.90
12089;DHT22;6107;49.078;8.578;2023-06-04T03:40:36;13.30;99.90
12089;DHT22;6107;49.078;8.578;2023-06-04T03:43:02;13.20;99.90
12089;DHT22;6107;49.078;8.578;2023-06-04T03:45:29;13.20;99.90
12089;DHT22;6107;49.078;8.578;2023-06-04T03:47:55;13.30;99.90
12089;DHT22;6107;49.078;8.578;2023-06-04T03:50:20;13.30;99.90
12089;DHT22;6107;49.078;8.578;2023-06-04T03:52:47;13.20;99.90
12089;DHT22;6107;49.078;8.578;2023-06-04T03:55:13;12.90;99.90
12089;DHT22;6107;49.078;8.578;2023-06-04T03:57:39;12.90;99.90
12089;DHT22;6107;49.078;8.578;2023-06-04T04:00:08;12.90;99.90
12089;DHT22;6107;49.078;8.578;2023-06-04T04:02:37;12.80;99.90
12089;DHT22;6107;49.078;8.578;2023-06-04T04:05:03;12.70;99.90
12089;DHT22;6107;49.078;8.578;2023-06-04T04:07:28;13.00;99.90
12089;DHT22;6107;49.078;8.578;2023-06-04T04:09:54;13.30;99.90
12089;DHT22;6107;49.078;8.578;2023-06-04T04:12:20;13.40;99.90
12089;DHT22;6107;49.078;8.578;2023-06-04T04:14:45;13.40;99.90
12089;DHT22;6107;49.078;8.578;2023-06-04T04:17:13;13.10;99.90
12089;DHT22;6107;49.078;8.578;2023-06-04T04:19:38;13.00;99.90
12089;DHT22;6107;49.078;8.578;2023-06-04T04:22:04;13.10;99.90
12089;DHT22;6107;49.078;8.578;2023-06-04T04:24:30;13.40;99.90
12089;DHT22;6107;49.078;8.578;2023-06-04T04:26:56;13.60;99.90
12089;DHT22;6107;49.078;8.578;2023-06-04T04:29:24;13.80;99.90
12089;DHT22;6107;49.078;8.578;2023-06-04T04:31:53;13.80;99.90
12089;DHT22;6107;49.078;8.578;2023-06-04T04:34:21;13.90;99.90
12089;DHT22;6107;49.078;8.578;2023-06-04T04:36:47;13.90;99.90
12089;DHT22;6107;49.078;8.578;2023-06-04T04:39:23;13.80;99.90
12089;DHT22;6107;49.078;8.578;2023-06-04T04:41:49;14.00;99.90
12089;DHT22;6107;49.078;8.578;2023-06-04T04:44:15;14.30;99.90
12089;DHT22;6107;49.078;8.578;2023-06-04T04:46:40;14.40;99.90
12089;DHT22;6107;49.078;8.578;2023-06-04T04:49:06;14.30;99.90
12089;DHT22;6107;49.078;8.578;2023-06-04T04:51:32;14.60;99.90
12089;DHT22;6107;49.078;8.578;2023-06-04T04:53:58;14.60;99.90
12089;DHT22;6107;49.078;8.578;2023-06-04T04:56:26;14.70;99.90
12089;DHT22;6107;49.078;8.578;2023-06-04T04:58:52;14.70;99.90
12089;DHT22;6107;49.078;8.578;2023-06-04T05:01:17;14.50;99.90
12089;DHT22;6107;49.078;8.578;2023-06-04T05:03:43;14.70;99.90
12089;DHT22;6107;49.078;8.578;2023-06-04T05:06:08;14.80;99.90
12089;DHT22;6107;49.078;8.578;2023-06-04T05:08:34;14.80;99.90
12089;DHT22;6107;49.078;8.578;2023-06-04T05:11:00;14.90;99.90
12089;DHT22;6107;49.078;8.578;2023-06-04T05:13:25;15.00;99.90
12089;DHT22;6107;49.078;8.578;2023-06-04T05:15:51;14.90;99.90
12089;DHT22;6107;49.078;8.578;2023-06-04T05:18:18;15.00;99.90
12089;DHT22;6107;49.078;8.578;2023-06-04T05:20:47;15.00;99.90
12089;DHT22;6107;49.078;8.578;2023-06-04T05:23:13;15.10;99.90
12089;DHT22;6107;49.078;8.578;2023-06-04T05:25:39;15.10;99.90
12089;DHT22;6107;49.078;8.578;2023-06-04T05:28:06;15.10;99.90
12089;DHT22;6107;49.078;8.578;2023-06-04T05:30:32;15.00;99.90
12089;DHT22;6107;49.078;8.578;2023-06-04T05:33:00;15.10;99.90
12089;DHT22;6107;49.078;8.578;2023-06-04T05:35:26;15.10;99.90
12089;DHT22;6107;49.078;8.578;2023-06-04T05:37:51;15.30;99.90
12089;DHT22;6107;49.078;8.578;2023-06-04T05:40:19;15.30;99.90
12089;DHT22;6107;49.078;8.578;2023-06-04T05:42:46;15.20;99.90
12089;DHT22;6107;49.078;8.578;2023-06-04T05:45:12;15.30;99.90
12089;DHT22;6107;49.078;8.578;2023-06-04T05:47:37;15.40;99.90
12089;DHT22;6107;49.078;8.578;2023-06-04T05:50:03;15.40;99.90
12089;DHT22;6107;49.078;8.578;2023-06-04T05:52:31;15.40;99.90
12089;DHT22;6107;49.078;8.578;2023-06-04T05:54:56;15.50;99.90
12089;DHT22;6107;49.078;8.578;2023-06-04T05:57:22;15.60;99.90
12089;DHT22;6107;49.078;8.578;2023-06-04T05:59:47;15.80;99.90
12089;DHT22;6107;49.078;8.578;2023-06-04T06:02:13;15.80;99.90
12089;DHT22;6107;49.078;8.578;2023-06-04T06:04:39;15.80;99.90
12089;DHT22;6107;49.078;8.578;2023-06-04T06:07:05;15.90;99.90
12089;DHT22;6107;49.078;8.578;2023-06-04T06:09:30;16.00;99.90
12089;DHT22;6107;49.078;8.578;2023-06-04T06:11:56;16.10;99.90
12089;DHT22;6107;49.078;8.578;2023-06-04T06:14:21;16.10;99.90
12089;DHT22;6107;49.078;8.578;2023-06-04T06:16:48;16.20;99.90
12089;DHT22;6107;49.078;8.578;2023-06-04T06:19:14;16.30;99.90
12089;DHT22;6107;49.078;8.578;2023-06-04T06:21:39;16.40;99.90
12089;DHT22;6107;49.078;8.578;2023-06-04T06:24:15;16.40;99.90
12089;DHT22;6107;49.078;8.578;2023-06-04T06:26:40;16.50;99.90
12089;DHT22;6107;49.078;8.578;2023-06-04T06:29:06;16.60;99.90
12089;DHT22;6107;49.078;8.578;2023-06-04T06:31:31;16.70;99.90
12089;DHT22;6107;49.078;8.578;2023-06-04T06:33:57;16.70;99.90
12089;DHT22;6107;49.078;8.578;2023-06-04T06:36:22;16.70;99.90
12089;DHT22;6107;49.078;8.578;2023-06-04T06:38:48;16.70;99.90
12089;DHT22;6107;49.078;8.578;2023-06-04T06:41:17;16.80;99.90
12089;DHT22;6107;49.078;8.578;2023-06-04T06:43:42;17.00;99.90
12089;DHT22;6107;49.078;8.578;2023-06-04T06:46:08;17.10;99.90
12089;DHT22;6107;49.078;8.578;2023-06-04T06:48:33;17.20;99.90
12089;DHT22;6107;49.078;8.578;2023-06-04T06:50:59;17.20;99.90
12089;DHT22;6107;49.078;8.578;2023-06-04T06:53:24;17.20;99.90
12089;DHT22;6107;49.078;8.578;2023-06-04T06:55:50;17.40;99.90
12089;DHT22;6107;49.078;8.578;2023-06-04T06:58:16;17.50;99.90
12089;DHT22;6107;49.078;8.578;2023-06-04T07:00:41;17.70;99.90
12089;DHT22;6107;49.078;8.578;2023-06-04T07:03:07;17.90;99.90
12089;DHT22;6107;49.078;8.578;2023-06-04T07:05:33;17.90;99.90
12089;DHT22;6107;49.078;8.578;2023-06-04T07:07:59;17.90;99.90
12089;DHT22;6107;49.078;8.578;2023-06-04T07:10:26;18.00;99.90
12089;DHT22;6107;49.078;8.578;2023-06-04T07:12:52;18.10;99.90
12089;DHT22;6107;49.078;8.578;2023-06-04T07:15:18;18.10;99.90
12089;DHT22;6107;49.078;8.578;2023-06-04T07:17:44;18.20;99.90
12089;DHT22;6107;49.078;8.578;2023-06-04T07:20:10;18.30;99.90
12089;DHT22;6107;49.078;8.578;2023-06-04T07:22:35;18.40;99.90
12089;DHT22;6107;49.078;8.578;2023-06-04T07:25:01;18.40;99.90
12089;DHT22;6107;49.078;8.578;2023-06-04T07:27:27;18.50;99.90
12089;DHT22;6107;49.078;8.578;2023-06-04T07:29:53;18.70;99.90
12089;DHT22;6107;49.078;8.578;2023-06-04T07:32:18;18.70;99.90
12089;DHT22;6107;49.078;8.578;2023-06-04T07:34:44;18.80;99.90
12089;DHT22;6107;49.078;8.578;2023-06-04T07:37:10;19.00;99.90
12089;DHT22;6107;49.078;8.578;2023-06-04T07:39:36;19.00;99.90
12089;DHT22;6107;49.078;8.578;2023-06-04T07:42:01;19.10;99.90
12089;DHT22;6107;49.078;8.578;2023-06-04T07:44:27;19.10;99.90
12089;DHT22;6107;49.078;8.578;2023-06-04T07:46:52;19.10;99.90
12089;DHT22;6107;49.078;8.578;2023-06-04T07:49:18;19.20;99.90
12089;DHT22;6107;49.078;8.578;2023-06-04T07:51:43;19.20;99.90
12089;DHT22;6107;49.078;8.578;2023-06-04T07:54:09;19.30;99.90
12089;DHT22;6107;49.078;8.578;2023-06-04T07:56:35;19.50;99.90
12089;DHT22;6107;49.078;8.578;2023-06-04T07:59:01;19.50;99.90
12089;DHT22;6107;49.078;8.578;2023-06-04T08:01:26;19.70;99.90
12089;DHT22;6107;49.078;8.578;2023-06-04T08:03:52;19.90;99.90
12089;DHT22;6107;49.078;8.578;2023-06-04T08:06:18;19.90;99.90
12089;DHT22;6107;49.078;8.578;2023-06-04T08:08:44;19.90;99.90
12089;DHT22;6107;49.078;8.578;2023-06-04T08:11:11;20.10;99.90
12089;DHT22;6107;49.078;8.578;2023-06-04T08:13:37;20.30;99.90
12089;DHT22;6107;49.078;8.578;2023-06-04T08:16:02;20.20;99.90
12089;DHT22;6107;49.078;8.578;2023-06-04T08:18:28;20.30;99.90
12089;DHT22;6107;49.078;8.578;2023-06-04T08:20:54;20.40;99.90
12089;DHT22;6107;49.078;8.578;2023-06-04T08:23:20;20.60;99.90
12089;DHT22;6107;49.078;8.578;2023-06-04T08:25:46;20.70;99.90
12089;DHT22;6107;49.078;8.578;2023-06-04T08:28:13;20.80;99.90
12089;DHT22;6107;49.078;8.578;2023-06-04T08:30:39;20.90;99.90
12089;DHT22;6107;49.078;8.578;2023-06-04T08:33:05;21.00;99.90
12089;DHT22;6107;49.078;8.578;2023-06-04T08:35:30;21.20;99.90
12089;DHT22;6107;49.078;8.578;2023-06-04T08:37:56;21.30;99.90
12089;DHT22;6107;49.078;8.578;2023-06-04T08:40:21;21.60;99.90
12089;DHT22;6107;49.078;8.578;2023-06-04T08:42:48;21.60;99.90
12089;DHT22;6107;49.078;8.578;2023-06-04T08:45:14;21.70;99.90
12089;DHT22;6107;49.078;8.578;2023-06-04T08:47:44;21.80;99.90
12089;DHT22;6107;49.078;8.578;2023-06-04T08:50:11;21.90;99.90
12089;DHT22;6107;49.078;8.578;2023-06-04T08:52:38;21.90;99.90
12089;DHT22;6107;49.078;8.578;2023-06-04T08:55:08;21.80;99.90
12089;DHT22;6107;49.078;8.578;2023-06-04T08:57:43;21.80;99.90
12089;DHT22;6107;49.078;8.578;2023-06-04T09:00:20;21.90;99.90
12089;DHT22;6107;49.078;8.578;2023-06-04T09:02:50;22.30;99.90
12089;DHT22;6107;49.078;8.578;2023-06-04T09:05:48;22.50;99.90
12089;DHT22;6107;49.078;8.578;2023-06-04T09:08:17;22.60;99.90
12089;DHT22;6107;49.078;8.578;2023-06-04T09:10:44;22.80;99.90
12089;DHT22;6107;49.078;8.578;2023-06-04T09:13:15;23.00;99.90
12089;DHT22;6107;49.078;8.578;2023-06-04T09:15:42;23.00;99.90
12089;DHT22;6107;49.078;8.578;2023-06-04T09:18:08;23.00;99.90
12089;DHT22;6107;49.078;8.578;2023-06-04T09:20:33;23.00;99.90
12089;DHT22;6107;49.078;8.578;2023-06-04T09:22:59;23.40;99.90
12089;DHT22;6107;49.078;8.578;2023-06-04T09:25:26;23.50;99.90
12089;DHT22;6107;49.078;8.578;2023-06-04T09:27:53;23.80;99.90
12089;DHT22;6107;49.078;8.578;2023-06-04T09:30:19;24.10;99.90
12089;DHT22;6107;49.078;8.578;2023-06-04T09:32:45;24.20;99.90
12089;DHT22;6107;49.078;8.578;2023-06-04T09:35:15;23.80;99.90
12089;DHT22;6107;49.078;8.578;2023-06-04T09:37:43;24.00;99.90
12089;DHT22;6107;49.078;8.578;2023-06-04T09:40:16;23.80;99.90
12089;DHT22;6107;49.078;8.578;2023-06-04T09:45:09;24.20;99.90
12089;DHT22;6107;49.078;8.578;2023-06-04T09:47:44;24.60;99.90
12089;DHT22;6107;49.078;8.578;2023-06-04T09:50:11;24.80;99.90
12089;DHT22;6107;49.078;8.578;2023-06-04T09:52:37;24.90;99.90
12089;DHT22;6107;49.078;8.578;2023-06-04T09:55:15;24.80;99.90
12089;DHT22;6107;49.078;8.578;2023-06-04T09:57:46;24.70;99.90
12089;DHT22;6107;49.078;8.578;2023-06-04T10:00:12;25.10;99.90
12089;DHT22;6107;49.078;8.578;2023-06-04T10:02:40;25.30;99.90
12089;DHT22;6107;49.078;8.578;2023-06-04T10:05:11;25.50;99.90
12089;DHT22;6107;49.078;8.578;2023-06-04T10:07:40;25.60;99.90
12089;DHT22;6107;49.078;8.578;2023-06-04T10:10:09;25.50;99.90
12089;DHT22;6107;49.078;8.578;2023-06-04T10:12:37;25.90;99.90
12089;DHT22;6107;49.078;8.578;2023-06-04T10:15:06;25.90;98.20
12089;DHT22;6107;49.078;8.578;2023-06-04T10:17:33;25.70;96.60
12089;DHT22;6107;49.078;8.578;2023-06-04T10:20:01;25.60;95.50
12089;DHT22;6107;49.078;8.578;2023-06-04T10:22:29;25.70;95.30
12089;DHT22;6107;49.078;8.578;2023-06-04T10:24:56;25.60;96.00
12089;DHT22;6107;49.078;8.578;2023-06-04T10:27:22;25.80;94.40
12089;DHT22;6107;49.078;8.578;2023-06-04T10:29:49;25.90;91.90
12089;DHT22;6107;49.078;8.578;2023-06-04T10:32:15;25.60;92.10
12089;DHT22;6107;49.078;8.578;2023-06-04T10:34:44;25.70;93.90
12089;DHT22;6107;49.078;8.578;2023-06-04T10:37:23;25.80;93.40
12089;DHT22;6107;49.078;8.578;2023-06-04T10:39:56;26.30;93.40
12089;DHT22;6107;49.078;8.578;2023-06-04T10:42:23;26.40;92.10
12089;DHT22;6107;49.078;8.578;2023-06-04T10:44:51;26.10;91.50
12089;DHT22;6107;49.078;8.578;2023-06-04T10:47:28;26.30;92.90
12089;DHT22;6107;49.078;8.578;2023-06-04T10:50:10;26.60;91.90
12089;DHT22;6107;49.078;8.578;2023-06-04T10:52:37;27.00;92.00
12089;DHT22;6107;49.078;8.578;2023-06-04T10:55:08;27.00;90.80
12089;DHT22;6107;49.078;8.578;2023-06-04T10:57:34;26.90;89.60
12089;DHT22;6107;49.078;8.578;2023-06-04T11:00:01;26.80;91.30
12089;DHT22;6107;49.078;8.578;2023-06-04T11:02:29;26.90;86.30
12089;DHT22;6107;49.078;8.578;2023-06-04T11:05:04;26.80;86.70
12089;DHT22;6107;49.078;8.578;2023-06-04T11:07:48;27.50;91.90
12089;DHT22;6107;49.078;8.578;2023-06-04T11:10:15;27.70;89.70
12089;DHT22;6107;49.078;8.578;2023-06-04T11:12:45;27.60;90.60
12089;DHT22;6107;49.078;8.578;2023-06-04T11:15:12;27.70;85.90
12089;DHT22;6107;49.078;8.578;2023-06-04T11:17:37;27.30;87.10
12089;DHT22;6107;49.078;8.578;2023-06-04T11:20:03;27.50;88.30
12089;DHT22;6107;49.078;8.578;2023-06-04T11:22:32;27.30;84.40
12089;DHT22;6107;49.078;8.578;2023-06-04T11:24:58;27.20;88.80
12089;DHT22;6107;49.078;8.578;2023-06-04T11:27:27;27.90;85.60
12089;DHT22;6107;49.078;8.578;2023-06-04T11:29:53;27.80;85.90
12089;DHT22;6107;49.078;8.578;2023-06-04T11:32:23;27.80;84.70
12089;DHT22;6107;49.078;8.578;2023-06-04T11:34:49;28.20;88.30
12089;DHT22;6107;49.078;8.578;2023-06-04T11:37:14;28.30;84.70
12089;DHT22;6107;49.078;8.578;2023-06-04T11:39:40;28.70;82.60
12089;DHT22;6107;49.078;8.578;2023-06-04T11:42:09;28.60;80.60
12089;DHT22;6107;49.078;8.578;2023-06-04T11:44:35;28.50;83.00
12089;DHT22;6107;49.078;8.578;2023-06-04T11:47:00;28.70;81.20
12089;DHT22;6107;49.078;8.578;2023-06-04T11:49:30;28.60;82.70
12089;DHT22;6107;49.078;8.578;2023-06-04T11:51:56;28.90;83.70
12089;DHT22;6107;49.078;8.578;2023-06-04T11:54:21;28.90;79.30
12089;DHT22;6107;49.078;8.578;2023-06-04T11:56:51;29.20;84.20
12089;DHT22;6107;49.078;8.578;2023-06-04T11:59:17;29.40;85.00
12089;DHT22;6107;49.078;8.578;2023-06-04T12:01:44;29.20;80.10
12089;DHT22;6107;49.078;8.578;2023-06-04T12:04:13;29.10;83.70
12089;DHT22;6107;49.078;8.578;2023-06-04T12:06:51;29.30;80.10
12089;DHT22;6107;49.078;8.578;2023-06-04T12:09:21;30.00;81.10
12089;DHT22;6107;49.078;8.578;2023-06-04T12:11:47;29.30;79.20
12089;DHT22;6107;49.078;8.578;2023-06-04T12:14:17;29.10;88.50
12089;DHT22;6107;49.078;8.578;2023-06-04T12:16:54;29.50;77.30
12089;DHT22;6107;49.078;8.578;2023-06-04T12:19:20;29.10;75.40
12089;DHT22;6107;49.078;8.578;2023-06-04T12:21:45;29.30;78.10
12089;DHT22;6107;49.078;8.578;2023-06-04T12:24:15;29.20;77.70
12089;DHT22;6107;49.078;8.578;2023-06-04T12:26:41;29.50;82.80
12089;DHT22;6107;49.078;8.578;2023-06-04T12:29:14;29.60;79.30
12089;DHT22;6107;49.078;8.578;2023-06-04T12:31:42;29.80;79.90
12089;DHT22;6107;49.078;8.578;2023-06-04T12:34:08;29.60;80.10
12089;DHT22;6107;49.078;8.578;2023-06-04T12:36:33;29.70;77.90
12089;DHT22;6107;49.078;8.578;2023-06-04T12:39:01;29.90;77.50
12089;DHT22;6107;49.078;8.578;2023-06-04T12:41:27;29.70;75.40
12089;DHT22;6107;49.078;8.578;2023-06-04T12:43:54;29.60;77.20
12089;DHT22;6107;49.078;8.578;2023-06-04T12:46:20;29.90;76.60
12089;DHT22;6107;49.078;8.578;2023-06-04T12:48:45;30.00;78.00
12089;DHT22;6107;49.078;8.578;2023-06-04T12:51:11;30.10;77.80
12089;DHT22;6107;49.078;8.578;2023-06-04T12:53:41;30.40;78.40
12089;DHT22;6107;49.078;8.578;2023-06-04T12:56:07;29.90;76.30
12089;DHT22;6107;49.078;8.578;2023-06-04T12:58:32;30.60;82.00
12089;DHT22;6107;49.078;8.578;2023-06-04T13:00:58;30.20;76.10
12089;DHT22;6107;49.078;8.578;2023-06-04T13:03:25;30.90;77.50
12089;DHT22;6107;49.078;8.578;2023-06-04T13:05:50;30.90;77.30
12089;DHT22;6107;49.078;8.578;2023-06-04T13:08:17;30.30;75.80
12089;DHT22;6107;49.078;8.578;2023-06-04T13:10:42;30.50;76.30
12089;DHT22;6107;49.078;8.578;2023-06-04T13:13:08;30.70;76.60
12089;DHT22;6107;49.078;8.578;2023-06-04T13:15:33;30.40;77.20
12089;DHT22;6107;49.078;8.578;2023-06-04T13:17:59;30.60;73.70
12089;DHT22;6107;49.078;8.578;2023-06-04T13:20:25;30.80;74.70
12089;DHT22;6107;49.078;8.578;2023-06-04T13:22:50;30.30;73.90
12089;DHT22;6107;49.078;8.578;2023-06-04T13:25:16;30.20;72.60
12089;DHT22;6107;49.078;8.578;2023-06-04T13:27:41;30.00;74.70
12089;DHT22;6107;49.078;8.578;2023-06-04T13:30:07;30.00;75.80
12089;DHT22;6107;49.078;8.578;2023-06-04T13:32:32;30.40;73.10
12089;DHT22;6107;49.078;8.578;2023-06-04T13:34:58;30.90;74.60
12089;DHT22;6107;49.078;8.578;2023-06-04T13:37:24;30.80;68.00
12089;DHT22;6107;49.078;8.578;2023-06-04T13:39:49;30.60;70.50
12089;DHT22;6107;49.078;8.578;2023-06-04T13:42:15;30.60;71.40
12089;DHT22;6107;49.078;8.578;2023-06-04T13:44:43;30.50;69.20
12089;DHT22;6107;49.078;8.578;2023-06-04T13:47:08;30.60;71.70
12089;DHT22;6107;49.078;8.578;2023-06-04T13:49:34;31.50;94.80
12089;DHT22;6107;49.078;8.578;2023-06-04T13:52:00;31.40;71.60
12089;DHT22;6107;49.078;8.578;2023-06-04T13:54:26;31.10;69.20
12089;DHT22;6107;49.078;8.578;2023-06-04T13:56:51;31.20;68.60
12089;DHT22;6107;49.078;8.578;2023-06-04T13:59:17;30.60;71.20
12089;DHT22;6107;49.078;8.578;2023-06-04T14:01:43;30.60;69.70
12089;DHT22;6107;49.078;8.578;2023-06-04T14:04:08;30.90;69.70
12089;DHT22;6107;49.078;8.578;2023-06-04T14:06:37;30.80;68.80
12089;DHT22;6107;49.078;8.578;2023-06-04T14:09:03;31.00;68.80
12089;DHT22;6107;49.078;8.578;2023-06-04T14:11:30;31.50;70.30
12089;DHT22;6107;49.078;8.578;2023-06-04T14:13:57;31.10;70.40
12089;DHT22;6107;49.078;8.578;2023-06-04T14:16:23;30.70;64.20
12089;DHT22;6107;49.078;8.578;2023-06-04T14:18:48;31.00;65.10
12089;DHT22;6107;49.078;8.578;2023-06-04T14:21:14;30.70;67.70
12089;DHT22;6107;49.078;8.578;2023-06-04T14:23:39;30.80;66.10
12089;DHT22;6107;49.078;8.578;2023-06-04T14:26:05;30.90;66.90
12089;DHT22;6107;49.078;8.578;2023-06-04T14:28:31;30.40;66.40
12089;DHT22;6107;49.078;8.578;2023-06-04T14:30:57;31.00;66.50
12089;DHT22;6107;49.078;8.578;2023-06-04T14:33:23;31.50;63.80
12089;DHT22;6107;49.078;8.578;2023-06-04T14:35:49;31.10;65.00
12089;DHT22;6107;49.078;8.578;2023-06-04T14:38:16;30.70;64.00
12089;DHT22;6107;49.078;8.578;2023-06-04T14:40:42;30.70;65.80
12089;DHT22;6107;49.078;8.578;2023-06-04T14:43:13;30.90;63.00
12089;DHT22;6107;49.078;8.578;2023-06-04T14:45:38;31.00;60.30
12089;DHT22;6107;49.078;8.578;2023-06-04T14:48:05;31.10;64.30
12089;DHT22;6107;49.078;8.578;2023-06-04T14:50:31;30.90;66.40
12089;DHT22;6107;49.078;8.578;2023-06-04T14:52:56;30.30;63.20
12089;DHT22;6107;49.078;8.578;2023-06-04T14:55:23;30.00;62.60
12089;DHT22;6107;49.078;8.578;2023-06-04T14:57:50;30.20;63.10
12089;DHT22;6107;49.078;8.578;2023-06-04T15:00:15;30.50;60.90
12089;DHT22;6107;49.078;8.578;2023-06-04T15:02:41;30.00;62.90
12089;DHT22;6107;49.078;8.578;2023-06-04T15:05:07;30.10;59.70
12089;DHT22;6107;49.078;8.578;2023-06-04T15:07:33;30.40;61.70
12089;DHT22;6107;49.078;8.578;2023-06-04T15:09:58;30.90;65.50
12089;DHT22;6107;49.078;8.578;2023-06-04T15:12:24;30.70;63.10
12089;DHT22;6107;49.078;8.578;2023-06-04T15:14:50;30.60;62.70
12089;DHT22;6107;49.078;8.578;2023-06-04T15:17:15;30.60;63.20
12089;DHT22;6107;49.078;8.578;2023-06-04T15:19:41;30.60;61.20
12089;DHT22;6107;49.078;8.578;2023-06-04T15:22:06;30.30;61.60
12089;DHT22;6107;49.078;8.578;2023-06-04T15:24:32;30.80;65.30
12089;DHT22;6107;49.078;8.578;2023-06-04T15:26:58;30.60;61.70
12089;DHT22;6107;49.078;8.578;2023-06-04T15:29:23;30.20;72.40
12089;DHT22;6107;49.078;8.578;2023-06-04T15:31:49;30.10;62.00
12089;DHT22;6107;49.078;8.578;2023-06-04T15:34:15;30.20;61.90
12089;DHT22;6107;49.078;8.578;2023-06-04T15:36:40;30.00;62.80
12089;DHT22;6107;49.078;8.578;2023-06-04T15:39:06;29.90;68.40
12089;DHT22;6107;49.078;8.578;2023-06-04T15:41:32;30.00;68.10
12089;DHT22;6107;49.078;8.578;2023-06-04T15:43:57;30.30;65.90
12089;DHT22;6107;49.078;8.578;2023-06-04T15:46:23;30.20;63.20
12089;DHT22;6107;49.078;8.578;2023-06-04T15:48:50;30.60;65.50